Kezdőlap
METAR-TAF:

METAR-TAF

Repülőterek :

Curaçao, Holland Antillák

földrajzi szélesség: 12-12N, földrajzi hosszúság: 068-58W, magasság: 9 m

Jelenlegi meteorológiai megfigyelések

A jelentés 3 órával és 43 perccel ezelõtt készült, 04:00 UTC
Keleti szél 13 kt
Hőmérséklet 26°C
Páratartalom 74%
Légköri nyomás 1013 hPa
Látótávolság 10 km, vagy több
Kevés felhő 1600 lábon

METAR: TNCC 240400Z 10013KT 9999 FEW016 26/21 Q1013 NOSIG

Idő: 03:43 (07:43 UTC)

Előrejelzés

Az előrejelzés 23-én 22 óra UTC és 24-én 00 óra UTC között érvényes
Keleti szél 13 kt
Látótávolság 10 km, vagy több
Szórványos felhőzet 2000 lábon

TAF: TNCC 232200 2400/2424 10013KT 9999 SCT020

Meteorológiai megfigyelések és előrejelzések több, mint 4000 repülőtéren (METAR és TAF jelentéseket).

A térképen piros és sárga pontok jelzik az elérhető meteorológiai állomásokat.

Mozgassa az egeret a pont fölött, hogy megjelenjen az állomás neve.

Azután kattintson az időjárási megfigyelések és előrejelzések megtekintéséhez.

A térkép megváltoztatása: kattintson a fekete keresztel jelölt zöld gombra ráközelítéshez, a vonallal jelölt zöld gombra távolításhoz, vagy a zöld nyilakra a szomszédos térképek eléréséhez.


METAR-TAF: